sensor_id;sensor_type;location;lat;lon;timestamp;P1;durP1;ratioP1;P2;durP2;ratioP2
37943;SDS011;23767;42.024;23.086;2023-05-07T00:00:08;6.28;;;3.15;;
37943;SDS011;23767;42.024;23.086;2023-05-07T00:02:34;6.20;;;3.30;;
37943;SDS011;23767;42.024;23.086;2023-05-07T00:05:01;5.28;;;3.30;;
37943;SDS011;23767;42.024;23.086;2023-05-07T00:07:27;6.22;;;3.58;;
37943;SDS011;23767;42.024;23.086;2023-05-07T00:09:53;5.10;;;3.03;;
37943;SDS011;23767;42.024;23.086;2023-05-07T00:12:20;5.22;;;3.28;;
37943;SDS011;23767;42.024;23.086;2023-05-07T00:14:46;7.50;;;3.42;;
37943;SDS011;23767;42.024;23.086;2023-05-07T00:17:12;5.50;;;2.92;;
37943;SDS011;23767;42.024;23.086;2023-05-07T00:19:38;5.72;;;3.40;;
37943;SDS011;23767;42.024;23.086;2023-05-07T00:22:04;6.25;;;3.58;;
37943;SDS011;23767;42.024;23.086;2023-05-07T00:24:30;4.82;;;3.13;;
37943;SDS011;23767;42.024;23.086;2023-05-07T00:26:56;6.35;;;3.35;;
37943;SDS011;23767;42.024;23.086;2023-05-07T00:29:23;5.75;;;3.65;;
37943;SDS011;23767;42.024;23.086;2023-05-07T00:31:49;5.53;;;3.70;;
37943;SDS011;23767;42.024;23.086;2023-05-07T00:34:16;4.93;;;3.30;;
37943;SDS011;23767;42.024;23.086;2023-05-07T00:36:42;5.72;;;3.42;;
37943;SDS011;23767;42.024;23.086;2023-05-07T00:39:08;6.35;;;3.20;;
37943;SDS011;23767;42.024;23.086;2023-05-07T00:41:34;7.53;;;3.55;;
37943;SDS011;23767;42.024;23.086;2023-05-07T00:44:00;6.55;;;3.45;;
37943;SDS011;23767;42.024;23.086;2023-05-07T00:46:27;6.07;;;3.50;;
37943;SDS011;23767;42.024;23.086;2023-05-07T00:48:54;5.78;;;3.53;;
37943;SDS011;23767;42.024;23.086;2023-05-07T00:51:20;6.05;;;3.80;;
37943;SDS011;23767;42.024;23.086;2023-05-07T00:53:46;8.02;;;3.88;;
37943;SDS011;23767;42.024;23.086;2023-05-07T00:56:12;5.55;;;3.30;;
37943;SDS011;23767;42.024;23.086;2023-05-07T00:58:38;6.28;;;3.95;;
37943;SDS011;23767;42.024;23.086;2023-05-07T01:01:04;5.50;;;3.72;;
37943;SDS011;23767;42.024;23.086;2023-05-07T01:03:31;6.18;;;3.63;;
37943;SDS011;23767;42.024;23.086;2023-05-07T01:05:57;5.35;;;3.50;;
37943;SDS011;23767;42.024;23.086;2023-05-07T01:08:24;5.85;;;4.00;;
37943;SDS011;23767;42.024;23.086;2023-05-07T01:10:53;6.78;;;4.07;;
37943;SDS011;23767;42.024;23.086;2023-05-07T01:13:19;6.65;;;4.15;;
37943;SDS011;23767;42.024;23.086;2023-05-07T01:15:45;6.13;;;4.22;;
37943;SDS011;23767;42.024;23.086;2023-05-07T01:18:12;7.22;;;4.05;;
37943;SDS011;23767;42.024;23.086;2023-05-07T01:20:38;7.85;;;3.97;;
37943;SDS011;23767;42.024;23.086;2023-05-07T01:23:04;6.30;;;4.35;;
37943;SDS011;23767;42.024;23.086;2023-05-07T01:25:30;6.95;;;4.22;;
37943;SDS011;23767;42.024;23.086;2023-05-07T01:27:56;6.25;;;4.40;;
37943;SDS011;23767;42.024;23.086;2023-05-07T01:30:24;6.57;;;3.90;;
37943;SDS011;23767;42.024;23.086;2023-05-07T01:32:52;7.13;;;4.43;;
37943;SDS011;23767;42.024;23.086;2023-05-07T01:35:20;8.00;;;4.00;;
37943;SDS011;23767;42.024;23.086;2023-05-07T01:37:47;6.32;;;4.20;;
37943;SDS011;23767;42.024;23.086;2023-05-07T01:40:13;6.70;;;4.00;;
37943;SDS011;23767;42.024;23.086;2023-05-07T01:42:41;6.72;;;4.18;;
37943;SDS011;23767;42.024;23.086;2023-05-07T01:45:16;5.72;;;4.00;;
37943;SDS011;23767;42.024;23.086;2023-05-07T01:47:54;7.07;;;4.00;;
37943;SDS011;23767;42.024;23.086;2023-05-07T01:50:58;7.03;;;4.57;;
37943;SDS011;23767;42.024;23.086;2023-05-07T01:53:40;7.22;;;4.60;;
37943;SDS011;23767;42.024;23.086;2023-05-07T01:56:36;8.77;;;4.93;;
37943;SDS011;23767;42.024;23.086;2023-05-07T02:02:24;5.80;;;4.20;;
37943;SDS011;23767;42.024;23.086;2023-05-07T02:05:13;6.90;;;4.50;;
37943;SDS011;23767;42.024;23.086;2023-05-07T02:07:44;8.77;;;4.70;;
37943;SDS011;23767;42.024;23.086;2023-05-07T02:22:28;6.80;;;4.45;;
37943;SDS011;23767;42.024;23.086;2023-05-07T02:28:19;10.00;;;5.10;;
37943;SDS011;23767;42.024;23.086;2023-05-07T02:30:56;6.30;;;4.75;;
37943;SDS011;23767;42.024;23.086;2023-05-07T02:33:55;6.25;;;3.90;;
37943;SDS011;23767;42.024;23.086;2023-05-07T02:36:46;6.50;;;4.32;;
37943;SDS011;23767;42.024;23.086;2023-05-07T02:39:19;5.28;;;4.03;;
37943;SDS011;23767;42.024;23.086;2023-05-07T02:42:04;7.13;;;4.18;;
37943;SDS011;23767;42.024;23.086;2023-05-07T02:44:41;6.63;;;4.38;;
37943;SDS011;23767;42.024;23.086;2023-05-07T02:50:43;7.70;;;4.68;;
37943;SDS011;23767;42.024;23.086;2023-05-07T02:56:28;6.95;;;4.40;;
37943;SDS011;23767;42.024;23.086;2023-05-07T02:58:59;6.55;;;4.05;;
37943;SDS011;23767;42.024;23.086;2023-05-07T03:01:35;9.43;;;4.30;;
37943;SDS011;23767;42.024;23.086;2023-05-07T03:04:01;6.25;;;4.22;;
37943;SDS011;23767;42.024;23.086;2023-05-07T03:06:27;7.40;;;4.00;;
37943;SDS011;23767;42.024;23.086;2023-05-07T03:08:53;6.35;;;4.50;;
37943;SDS011;23767;42.024;23.086;2023-05-07T03:11:19;6.22;;;4.03;;
37943;SDS011;23767;42.024;23.086;2023-05-07T03:13:45;8.43;;;4.07;;
37943;SDS011;23767;42.024;23.086;2023-05-07T03:16:13;7.95;;;4.20;;
37943;SDS011;23767;42.024;23.086;2023-05-07T03:18:40;6.90;;;4.10;;
37943;SDS011;23767;42.024;23.086;2023-05-07T03:21:06;7.75;;;4.80;;
37943;SDS011;23767;42.024;23.086;2023-05-07T03:23:32;8.68;;;4.15;;
37943;SDS011;23767;42.024;23.086;2023-05-07T03:25:58;9.68;;;4.18;;
37943;SDS011;23767;42.024;23.086;2023-05-07T03:28:24;7.30;;;3.92;;
37943;SDS011;23767;42.024;23.086;2023-05-07T03:30:50;7.30;;;3.85;;
37943;SDS011;23767;42.024;23.086;2023-05-07T03:33:16;8.25;;;4.50;;
37943;SDS011;23767;42.024;23.086;2023-05-07T03:35:42;6.65;;;4.50;;
37943;SDS011;23767;42.024;23.086;2023-05-07T03:38:08;9.07;;;4.50;;
37943;SDS011;23767;42.024;23.086;2023-05-07T03:40:34;8.73;;;4.45;;
37943;SDS011;23767;42.024;23.086;2023-05-07T03:43:00;6.05;;;4.65;;
37943;SDS011;23767;42.024;23.086;2023-05-07T03:45:26;9.40;;;5.10;;
37943;SDS011;23767;42.024;23.086;2023-05-07T03:47:52;10.07;;;5.28;;
37943;SDS011;23767;42.024;23.086;2023-05-07T03:50:20;6.97;;;5.10;;
37943;SDS011;23767;42.024;23.086;2023-05-07T03:53:13;7.85;;;4.95;;
37943;SDS011;23767;42.024;23.086;2023-05-07T03:55:55;6.53;;;4.68;;
37943;SDS011;23767;42.024;23.086;2023-05-07T04:05:08;7.75;;;4.97;;
37943;SDS011;23767;42.024;23.086;2023-05-07T04:07:41;8.57;;;4.80;;
37943;SDS011;23767;42.024;23.086;2023-05-07T04:10:35;9.00;;;4.95;;
37943;SDS011;23767;42.024;23.086;2023-05-07T04:16:11;5.82;;;3.85;;
37943;SDS011;23767;42.024;23.086;2023-05-07T04:18:57;7.55;;;4.20;;
37943;SDS011;23767;42.024;23.086;2023-05-07T04:21:48;8.45;;;4.32;;
37943;SDS011;23767;42.024;23.086;2023-05-07T04:30:41;6.60;;;4.30;;
37943;SDS011;23767;42.024;23.086;2023-05-07T04:33:42;5.95;;;3.85;;
37943;SDS011;23767;42.024;23.086;2023-05-07T04:39:24;5.78;;;3.53;;
37943;SDS011;23767;42.024;23.086;2023-05-07T04:42:05;7.70;;;3.92;;
37943;SDS011;23767;42.024;23.086;2023-05-07T04:44:52;7.40;;;4.00;;
37943;SDS011;23767;42.024;23.086;2023-05-07T04:47:40;7.30;;;3.70;;
37943;SDS011;23767;42.024;23.086;2023-05-07T04:50:18;7.03;;;3.60;;
37943;SDS011;23767;42.024;23.086;2023-05-07T04:53:11;6.88;;;3.88;;
37943;SDS011;23767;42.024;23.086;2023-05-07T04:56:00;5.72;;;4.40;;
37943;SDS011;23767;42.024;23.086;2023-05-07T04:58:42;8.00;;;4.30;;
37943;SDS011;23767;42.024;23.086;2023-05-07T05:01:29;7.50;;;4.60;;
37943;SDS011;23767;42.024;23.086;2023-05-07T05:03:55;7.15;;;4.85;;
37943;SDS011;23767;42.024;23.086;2023-05-07T05:06:21;11.38;;;4.93;;
37943;SDS011;23767;42.024;23.086;2023-05-07T05:08:47;8.05;;;4.75;;
37943;SDS011;23767;42.024;23.086;2023-05-07T05:11:13;8.05;;;4.72;;
37943;SDS011;23767;42.024;23.086;2023-05-07T05:13:40;7.13;;;5.40;;
37943;SDS011;23767;42.024;23.086;2023-05-07T05:16:06;9.10;;;5.78;;
37943;SDS011;23767;42.024;23.086;2023-05-07T05:18:32;9.88;;;5.13;;
37943;SDS011;23767;42.024;23.086;2023-05-07T05:20:58;8.43;;;4.93;;
37943;SDS011;23767;42.024;23.086;2023-05-07T05:23:24;7.18;;;4.47;;
37943;SDS011;23767;42.024;23.086;2023-05-07T05:25:54;7.75;;;4.97;;
37943;SDS011;23767;42.024;23.086;2023-05-07T05:28:21;9.65;;;4.97;;
37943;SDS011;23767;42.024;23.086;2023-05-07T05:30:47;8.30;;;5.20;;
37943;SDS011;23767;42.024;23.086;2023-05-07T05:33:13;6.13;;;4.35;;
37943;SDS011;23767;42.024;23.086;2023-05-07T05:35:39;6.63;;;4.63;;
37943;SDS011;23767;42.024;23.086;2023-05-07T05:38:05;7.15;;;4.88;;
37943;SDS011;23767;42.024;23.086;2023-05-07T05:40:31;7.95;;;4.63;;
37943;SDS011;23767;42.024;23.086;2023-05-07T05:42:58;6.38;;;4.30;;
37943;SDS011;23767;42.024;23.086;2023-05-07T05:45:24;6.78;;;4.70;;
37943;SDS011;23767;42.024;23.086;2023-05-07T05:47:50;9.02;;;5.30;;
37943;SDS011;23767;42.024;23.086;2023-05-07T05:50:16;6.53;;;4.82;;
37943;SDS011;23767;42.024;23.086;2023-05-07T05:52:42;8.38;;;5.00;;
37943;SDS011;23767;42.024;23.086;2023-05-07T05:55:08;8.07;;;4.82;;
37943;SDS011;23767;42.024;23.086;2023-05-07T05:57:35;7.57;;;5.00;;
37943;SDS011;23767;42.024;23.086;2023-05-07T06:00:01;7.88;;;4.93;;
37943;SDS011;23767;42.024;23.086;2023-05-07T06:14:08;12.75;;;5.13;;
37943;SDS011;23767;42.024;23.086;2023-05-07T06:16:34;7.65;;;5.03;;
37943;SDS011;23767;42.024;23.086;2023-05-07T06:19:01;8.57;;;5.00;;
37943;SDS011;23767;42.024;23.086;2023-05-07T06:21:27;8.68;;;4.85;;
37943;SDS011;23767;42.024;23.086;2023-05-07T06:23:53;6.57;;;4.43;;
37943;SDS011;23767;42.024;23.086;2023-05-07T06:26:19;7.13;;;4.40;;
37943;SDS011;23767;42.024;23.086;2023-05-07T06:28:46;7.32;;;4.10;;
37943;SDS011;23767;42.024;23.086;2023-05-07T06:31:13;7.70;;;4.47;;
37943;SDS011;23767;42.024;23.086;2023-05-07T06:33:39;7.68;;;4.78;;
37943;SDS011;23767;42.024;23.086;2023-05-07T06:36:05;9.75;;;4.50;;
37943;SDS011;23767;42.024;23.086;2023-05-07T06:38:32;8.10;;;4.43;;
37943;SDS011;23767;42.024;23.086;2023-05-07T06:40:57;7.70;;;4.40;;
37943;SDS011;23767;42.024;23.086;2023-05-07T06:43:24;9.73;;;4.82;;
37943;SDS011;23767;42.024;23.086;2023-05-07T06:45:50;7.90;;;3.90;;
37943;SDS011;23767;42.024;23.086;2023-05-07T06:48:16;8.70;;;4.82;;
37943;SDS011;23767;42.024;23.086;2023-05-07T06:50:42;7.88;;;4.90;;
37943;SDS011;23767;42.024;23.086;2023-05-07T06:53:08;8.43;;;4.32;;
37943;SDS011;23767;42.024;23.086;2023-05-07T06:55:34;6.78;;;4.45;;
37943;SDS011;23767;42.024;23.086;2023-05-07T06:58:00;9.50;;;4.55;;
37943;SDS011;23767;42.024;23.086;2023-05-07T07:00:29;8.02;;;4.50;;
37943;SDS011;23767;42.024;23.086;2023-05-07T07:02:56;6.50;;;4.30;;
37943;SDS011;23767;42.024;23.086;2023-05-07T07:05:22;8.55;;;4.68;;
37943;SDS011;23767;42.024;23.086;2023-05-07T07:07:48;9.13;;;4.45;;
37943;SDS011;23767;42.024;23.086;2023-05-07T07:10:20;7.47;;;4.07;;
37943;SDS011;23767;42.024;23.086;2023-05-07T07:12:46;8.13;;;4.82;;
37943;SDS011;23767;42.024;23.086;2023-05-07T07:15:15;10.93;;;5.00;;
37943;SDS011;23767;42.024;23.086;2023-05-07T07:17:42;11.27;;;4.72;;
37943;SDS011;23767;42.024;23.086;2023-05-07T07:20:08;7.90;;;4.05;;
37943;SDS011;23767;42.024;23.086;2023-05-07T07:22:34;8.95;;;4.70;;
37943;SDS011;23767;42.024;23.086;2023-05-07T07:25:00;8.43;;;4.72;;
37943;SDS011;23767;42.024;23.086;2023-05-07T07:27:26;9.00;;;4.50;;
37943;SDS011;23767;42.024;23.086;2023-05-07T07:29:52;9.77;;;4.40;;
37943;SDS011;23767;42.024;23.086;2023-05-07T07:32:18;10.32;;;4.93;;
37943;SDS011;23767;42.024;23.086;2023-05-07T07:34:44;6.82;;;4.72;;
37943;SDS011;23767;42.024;23.086;2023-05-07T07:37:10;9.55;;;4.57;;
37943;SDS011;23767;42.024;23.086;2023-05-07T07:39:36;10.15;;;5.28;;
37943;SDS011;23767;42.024;23.086;2023-05-07T07:42:02;8.45;;;4.45;;
37943;SDS011;23767;42.024;23.086;2023-05-07T07:44:28;7.93;;;4.47;;
37943;SDS011;23767;42.024;23.086;2023-05-07T07:46:54;9.65;;;4.38;;
37943;SDS011;23767;42.024;23.086;2023-05-07T07:49:21;8.45;;;4.00;;
37943;SDS011;23767;42.024;23.086;2023-05-07T07:51:47;6.22;;;3.42;;
37943;SDS011;23767;42.024;23.086;2023-05-07T07:54:13;6.88;;;3.40;;
37943;SDS011;23767;42.024;23.086;2023-05-07T07:56:39;7.30;;;3.80;;
37943;SDS011;23767;42.024;23.086;2023-05-07T07:59:05;7.22;;;3.75;;
37943;SDS011;23767;42.024;23.086;2023-05-07T08:01:31;7.53;;;4.15;;
37943;SDS011;23767;42.024;23.086;2023-05-07T08:03:57;7.43;;;4.03;;
37943;SDS011;23767;42.024;23.086;2023-05-07T08:06:24;8.48;;;3.75;;
37943;SDS011;23767;42.024;23.086;2023-05-07T08:08:51;8.07;;;4.15;;
37943;SDS011;23767;42.024;23.086;2023-05-07T08:11:17;5.60;;;3.45;;
37943;SDS011;23767;42.024;23.086;2023-05-07T08:13:43;8.93;;;4.10;;
37943;SDS011;23767;42.024;23.086;2023-05-07T08:16:10;8.93;;;4.28;;
37943;SDS011;23767;42.024;23.086;2023-05-07T08:18:36;7.30;;;4.00;;
37943;SDS011;23767;42.024;23.086;2023-05-07T08:21:02;6.40;;;4.03;;
37943;SDS011;23767;42.024;23.086;2023-05-07T08:23:28;10.23;;;4.78;;
37943;SDS011;23767;42.024;23.086;2023-05-07T08:25:54;8.95;;;3.58;;
37943;SDS011;23767;42.024;23.086;2023-05-07T08:28:20;6.55;;;3.80;;
37943;SDS011;23767;42.024;23.086;2023-05-07T08:30:46;7.35;;;3.78;;
37943;SDS011;23767;42.024;23.086;2023-05-07T08:33:12;6.88;;;3.47;;
37943;SDS011;23767;42.024;23.086;2023-05-07T08:35:38;6.65;;;3.30;;
37943;SDS011;23767;42.024;23.086;2023-05-07T08:38:04;7.55;;;3.50;;
37943;SDS011;23767;42.024;23.086;2023-05-07T08:40:31;8.43;;;3.83;;
37943;SDS011;23767;42.024;23.086;2023-05-07T08:43:00;8.05;;;3.78;;
37943;SDS011;23767;42.024;23.086;2023-05-07T08:45:27;5.63;;;3.22;;
37943;SDS011;23767;42.024;23.086;2023-05-07T08:48:00;7.68;;;3.60;;
37943;SDS011;23767;42.024;23.086;2023-05-07T08:50:27;7.10;;;3.33;;
37943;SDS011;23767;42.024;23.086;2023-05-07T08:52:53;7.40;;;3.20;;
37943;SDS011;23767;42.024;23.086;2023-05-07T08:55:19;6.75;;;3.08;;
37943;SDS011;23767;42.024;23.086;2023-05-07T08:57:46;6.18;;;3.40;;
37943;SDS011;23767;42.024;23.086;2023-05-07T09:00:13;7.65;;;3.25;;
37943;SDS011;23767;42.024;23.086;2023-05-07T09:02:39;5.82;;;2.90;;
37943;SDS011;23767;42.024;23.086;2023-05-07T09:05:05;5.95;;;3.08;;
37943;SDS011;23767;42.024;23.086;2023-05-07T09:07:32;6.97;;;3.38;;
37943;SDS011;23767;42.024;23.086;2023-05-07T09:09:58;6.85;;;2.85;;
37943;SDS011;23767;42.024;23.086;2023-05-07T09:12:24;6.72;;;3.22;;
37943;SDS011;23767;42.024;23.086;2023-05-07T09:14:50;8.07;;;3.58;;
37943;SDS011;23767;42.024;23.086;2023-05-07T09:17:16;5.07;;;2.85;;
37943;SDS011;23767;42.024;23.086;2023-05-07T09:19:43;7.43;;;3.50;;
37943;SDS011;23767;42.024;23.086;2023-05-07T09:22:10;6.70;;;3.53;;
37943;SDS011;23767;42.024;23.086;2023-05-07T09:24:36;7.13;;;3.38;;
37943;SDS011;23767;42.024;23.086;2023-05-07T09:27:06;4.47;;;2.95;;
37943;SDS011;23767;42.024;23.086;2023-05-07T09:29:34;5.90;;;3.15;;
37943;SDS011;23767;42.024;23.086;2023-05-07T09:32:01;5.47;;;2.60;;
37943;SDS011;23767;42.024;23.086;2023-05-07T09:34:28;6.72;;;3.15;;
37943;SDS011;23767;42.024;23.086;2023-05-07T09:36:54;4.78;;;2.50;;
37943;SDS011;23767;42.024;23.086;2023-05-07T09:39:21;4.88;;;2.90;;
37943;SDS011;23767;42.024;23.086;2023-05-07T09:41:48;7.38;;;2.95;;
37943;SDS011;23767;42.024;23.086;2023-05-07T09:44:14;7.38;;;2.88;;
37943;SDS011;23767;42.024;23.086;2023-05-07T09:46:43;6.78;;;2.60;;
37943;SDS011;23767;42.024;23.086;2023-05-07T09:49:11;4.50;;;2.50;;
37943;SDS011;23767;42.024;23.086;2023-05-07T09:51:49;4.40;;;2.35;;
37943;SDS011;23767;42.024;23.086;2023-05-07T09:54:15;4.13;;;2.38;;
37943;SDS011;23767;42.024;23.086;2023-05-07T09:56:42;4.47;;;2.75;;
37943;SDS011;23767;42.024;23.086;2023-05-07T09:59:10;5.50;;;2.63;;
37943;SDS011;23767;42.024;23.086;2023-05-07T10:01:36;4.95;;;2.65;;
37943;SDS011;23767;42.024;23.086;2023-05-07T10:04:02;5.63;;;2.67;;
37943;SDS011;23767;42.024;23.086;2023-05-07T10:06:29;4.75;;;2.53;;
37943;SDS011;23767;42.024;23.086;2023-05-07T10:08:55;4.63;;;2.50;;
37943;SDS011;23767;42.024;23.086;2023-05-07T10:11:22;6.47;;;2.78;;
37943;SDS011;23767;42.024;23.086;2023-05-07T10:13:48;4.78;;;2.63;;
37943;SDS011;23767;42.024;23.086;2023-05-07T10:16:14;5.55;;;2.75;;
37943;SDS011;23767;42.024;23.086;2023-05-07T10:18:41;4.32;;;2.60;;
37943;SDS011;23767;42.024;23.086;2023-05-07T10:21:08;5.50;;;2.80;;
37943;SDS011;23767;42.024;23.086;2023-05-07T10:23:34;5.43;;;2.80;;
37943;SDS011;23767;42.024;23.086;2023-05-07T10:26:02;5.22;;;2.45;;
37943;SDS011;23767;42.024;23.086;2023-05-07T10:28:30;5.57;;;2.80;;
37943;SDS011;23767;42.024;23.086;2023-05-07T10:33:41;4.88;;;2.80;;
37943;SDS011;23767;42.024;23.086;2023-05-07T10:36:08;4.47;;;2.40;;
37943;SDS011;23767;42.024;23.086;2023-05-07T10:38:34;5.88;;;2.70;;
37943;SDS011;23767;42.024;23.086;2023-05-07T10:41:00;5.30;;;2.58;;
37943;SDS011;23767;42.024;23.086;2023-05-07T10:43:42;5.35;;;2.50;;
37943;SDS011;23767;42.024;23.086;2023-05-07T10:49:22;4.47;;;2.25;;
37943;SDS011;23767;42.024;23.086;2023-05-07T10:51:23;3.53;;;2.22;;
37943;SDS011;23767;42.024;23.086;2023-05-07T10:54:10;5.82;;;2.28;;
37943;SDS011;23767;42.024;23.086;2023-05-07T10:56:40;6.13;;;2.38;;
37943;SDS011;23767;42.024;23.086;2023-05-07T11:01:54;6.13;;;2.58;;
37943;SDS011;23767;42.024;23.086;2023-05-07T11:04:22;4.00;;;2.03;;
37943;SDS011;23767;42.024;23.086;2023-05-07T11:15:04;5.75;;;2.40;;
37943;SDS011;23767;42.024;23.086;2023-05-07T11:17:31;3.90;;;2.35;;
37943;SDS011;23767;42.024;23.086;2023-05-07T11:19:59;4.10;;;2.13;;
37943;SDS011;23767;42.024;23.086;2023-05-07T11:25:04;5.07;;;2.13;;
37943;SDS011;23767;42.024;23.086;2023-05-07T11:27:31;6.28;;;2.33;;
37943;SDS011;23767;42.024;23.086;2023-05-07T11:29:57;4.90;;;2.67;;
37943;SDS011;23767;42.024;23.086;2023-05-07T11:32:23;4.72;;;2.65;;
37943;SDS011;23767;42.024;23.086;2023-05-07T11:34:53;3.70;;;1.90;;
37943;SDS011;23767;42.024;23.086;2023-05-07T11:37:20;5.55;;;2.58;;
37943;SDS011;23767;42.024;23.086;2023-05-07T11:39:46;5.45;;;2.33;;
37943;SDS011;23767;42.024;23.086;2023-05-07T11:42:25;3.92;;;2.20;;
37943;SDS011;23767;42.024;23.086;2023-05-07T11:44:51;5.97;;;2.30;;
37943;SDS011;23767;42.024;23.086;2023-05-07T11:47:18;3.30;;;2.00;;
37943;SDS011;23767;42.024;23.086;2023-05-07T11:49:47;3.97;;;1.92;;
37943;SDS011;23767;42.024;23.086;2023-05-07T11:52:14;3.97;;;2.13;;
37943;SDS011;23767;42.024;23.086;2023-05-07T11:54:40;4.82;;;2.50;;
37943;SDS011;23767;42.024;23.086;2023-05-07T11:57:06;6.10;;;2.30;;
37943;SDS011;23767;42.024;23.086;2023-05-07T11:59:39;4.15;;;2.40;;
37943;SDS011;23767;42.024;23.086;2023-05-07T12:02:06;4.75;;;2.13;;
37943;SDS011;23767;42.024;23.086;2023-05-07T12:04:32;3.65;;;2.20;;
37943;SDS011;23767;42.024;23.086;2023-05-07T12:06:58;3.80;;;2.20;;
37943;SDS011;23767;42.024;23.086;2023-05-07T12:09:25;4.82;;;2.50;;
37943;SDS011;23767;42.024;23.086;2023-05-07T12:11:51;4.30;;;2.35;;
37943;SDS011;23767;42.024;23.086;2023-05-07T12:14:17;5.07;;;2.33;;
37943;SDS011;23767;42.024;23.086;2023-05-07T12:16:44;4.80;;;2.33;;
37943;SDS011;23767;42.024;23.086;2023-05-07T12:19:10;5.80;;;2.28;;
37943;SDS011;23767;42.024;23.086;2023-05-07T12:21:40;7.50;;;2.25;;
37943;SDS011;23767;42.024;23.086;2023-05-07T12:24:06;3.47;;;1.95;;
37943;SDS011;23767;42.024;23.086;2023-05-07T12:26:37;4.40;;;1.90;;
37943;SDS011;23767;42.024;23.086;2023-05-07T12:29:03;4.68;;;2.03;;
37943;SDS011;23767;42.024;23.086;2023-05-07T12:31:29;4.47;;;1.98;;
37943;SDS011;23767;42.024;23.086;2023-05-07T12:33:56;3.45;;;2.28;;
37943;SDS011;23767;42.024;23.086;2023-05-07T12:36:22;3.78;;;2.30;;
37943;SDS011;23767;42.024;23.086;2023-05-07T12:38:49;4.70;;;2.00;;
37943;SDS011;23767;42.024;23.086;2023-05-07T12:41:15;4.20;;;2.22;;
37943;SDS011;23767;42.024;23.086;2023-05-07T12:43:44;4.15;;;2.22;;
37943;SDS011;23767;42.024;23.086;2023-05-07T12:46:11;4.10;;;2.10;;
37943;SDS011;23767;42.024;23.086;2023-05-07T12:48:44;4.47;;;2.20;;
37943;SDS011;23767;42.024;23.086;2023-05-07T12:51:13;4.85;;;2.10;;
37943;SDS011;23767;42.024;23.086;2023-05-07T12:53:40;3.97;;;1.90;;
37943;SDS011;23767;42.024;23.086;2023-05-07T12:56:07;4.13;;;2.20;;
37943;SDS011;23767;42.024;23.086;2023-05-07T12:58:33;4.78;;;2.20;;
37943;SDS011;23767;42.024;23.086;2023-05-07T13:01:01;4.80;;;2.17;;
37943;SDS011;23767;42.024;23.086;2023-05-07T13:03:30;4.07;;;1.98;;
37943;SDS011;23767;42.024;23.086;2023-05-07T13:06:02;3.90;;;2.13;;
37943;SDS011;23767;42.024;23.086;2023-05-07T13:10:54;4.43;;;1.90;;
37943;SDS011;23767;42.024;23.086;2023-05-07T13:13:20;4.93;;;2.05;;
37943;SDS011;23767;42.024;23.086;2023-05-07T13:15:47;3.22;;;1.60;;
37943;SDS011;23767;42.024;23.086;2023-05-07T13:18:13;3.83;;;1.70;;
37943;SDS011;23767;42.024;23.086;2023-05-07T13:20:39;3.70;;;2.00;;
37943;SDS011;23767;42.024;23.086;2023-05-07T13:23:06;4.25;;;2.30;;
37943;SDS011;23767;42.024;23.086;2023-05-07T13:25:32;5.38;;;2.25;;
37943;SDS011;23767;42.024;23.086;2023-05-07T13:27:58;2.90;;;1.77;;
37943;SDS011;23767;42.024;23.086;2023-05-07T13:30:24;5.88;;;2.13;;
37943;SDS011;23767;42.024;23.086;2023-05-07T13:32:50;5.18;;;2.00;;
37943;SDS011;23767;42.024;23.086;2023-05-07T13:35:17;5.80;;;1.90;;
37943;SDS011;23767;42.024;23.086;2023-05-07T13:37:43;3.80;;;1.85;;
37943;SDS011;23767;42.024;23.086;2023-05-07T13:40:09;3.10;;;1.90;;
37943;SDS011;23767;42.024;23.086;2023-05-07T13:42:35;4.70;;;2.03;;
37943;SDS011;23767;42.024;23.086;2023-05-07T13:45:01;3.85;;;2.13;;
37943;SDS011;23767;42.024;23.086;2023-05-07T13:47:30;3.85;;;1.95;;
37943;SDS011;23767;42.024;23.086;2023-05-07T13:49:56;4.82;;;1.95;;
37943;SDS011;23767;42.024;23.086;2023-05-07T13:52:22;4.22;;;2.03;;
37943;SDS011;23767;42.024;23.086;2023-05-07T13:54:48;3.30;;;1.85;;
37943;SDS011;23767;42.024;23.086;2023-05-07T13:57:14;4.07;;;2.15;;
37943;SDS011;23767;42.024;23.086;2023-05-07T13:59:40;4.00;;;2.05;;
37943;SDS011;23767;42.024;23.086;2023-05-07T14:02:06;3.75;;;1.77;;
37943;SDS011;23767;42.024;23.086;2023-05-07T14:04:34;4.03;;;2.00;;
37943;SDS011;23767;42.024;23.086;2023-05-07T14:07:00;3.17;;;1.60;;
37943;SDS011;23767;42.024;23.086;2023-05-07T14:09:26;4.03;;;2.10;;
37943;SDS011;23767;42.024;23.086;2023-05-07T14:11:52;4.75;;;2.00;;
37943;SDS011;23767;42.024;23.086;2023-05-07T14:14:18;4.72;;;2.33;;
37943;SDS011;23767;42.024;23.086;2023-05-07T14:16:44;3.78;;;2.10;;
37943;SDS011;23767;42.024;23.086;2023-05-07T14:19:11;3.28;;;1.80;;
37943;SDS011;23767;42.024;23.086;2023-05-07T14:21:37;3.90;;;2.28;;
37943;SDS011;23767;42.024;23.086;2023-05-07T14:24:03;5.75;;;2.20;;
37943;SDS011;23767;42.024;23.086;2023-05-07T14:26:30;4.38;;;2.13;;
37943;SDS011;23767;42.024;23.086;2023-05-07T14:28:56;3.72;;;2.17;;
37943;SDS011;23767;42.024;23.086;2023-05-07T14:31:23;5.10;;;2.20;;
37943;SDS011;23767;42.024;23.086;2023-05-07T14:33:49;8.05;;;2.20;;
37943;SDS011;23767;42.024;23.086;2023-05-07T14:36:17;5.28;;;2.25;;
37943;SDS011;23767;42.024;23.086;2023-05-07T14:38:44;3.67;;;2.10;;
37943;SDS011;23767;42.024;23.086;2023-05-07T14:41:10;5.07;;;2.00;;
37943;SDS011;23767;42.024;23.086;2023-05-07T14:43:36;5.85;;;2.00;;
37943;SDS011;23767;42.024;23.086;2023-05-07T14:46:02;4.20;;;1.90;;
37943;SDS011;23767;42.024;23.086;2023-05-07T14:48:28;4.40;;;2.00;;
37943;SDS011;23767;42.024;23.086;2023-05-07T14:50:54;5.25;;;2.33;;
37943;SDS011;23767;42.024;23.086;2023-05-07T14:53:21;3.90;;;2.10;;
37943;SDS011;23767;42.024;23.086;2023-05-07T14:55:47;4.47;;;2.13;;
37943;SDS011;23767;42.024;23.086;2023-05-07T14:58:13;3.88;;;2.30;;
37943;SDS011;23767;42.024;23.086;2023-05-07T15:00:40;6.28;;;2.70;;
37943;SDS011;23767;42.024;23.086;2023-05-07T15:03:07;3.60;;;2.35;;
37943;SDS011;23767;42.024;23.086;2023-05-07T15:05:33;4.57;;;2.42;;
37943;SDS011;23767;42.024;23.086;2023-05-07T15:07:59;7.97;;;2.30;;
37943;SDS011;23767;42.024;23.086;2023-05-07T15:10:25;6.55;;;2.30;;
37943;SDS011;23767;42.024;23.086;2023-05-07T15:12:51;4.18;;;2.30;;
37943;SDS011;23767;42.024;23.086;2023-05-07T15:15:17;6.38;;;2.50;;
37943;SDS011;23767;42.024;23.086;2023-05-07T15:17:43;4.57;;;2.30;;
37943;SDS011;23767;42.024;23.086;2023-05-07T15:20:09;5.47;;;2.75;;
37943;SDS011;23767;42.024;23.086;2023-05-07T15:22:36;6.63;;;2.50;;
37943;SDS011;23767;42.024;23.086;2023-05-07T15:25:02;4.80;;;2.60;;
37943;SDS011;23767;42.024;23.086;2023-05-07T15:27:29;6.38;;;2.60;;
37943;SDS011;23767;42.024;23.086;2023-05-07T15:29:55;4.72;;;2.55;;
37943;SDS011;23767;42.024;23.086;2023-05-07T15:32:21;5.80;;;3.13;;
37943;SDS011;23767;42.024;23.086;2023-05-07T15:34:48;6.43;;;2.80;;
37943;SDS011;23767;42.024;23.086;2023-05-07T15:37:14;6.57;;;2.80;;
37943;SDS011;23767;42.024;23.086;2023-05-07T15:39:40;5.97;;;2.65;;
37943;SDS011;23767;42.024;23.086;2023-05-07T15:42:06;5.70;;;2.72;;
37943;SDS011;23767;42.024;23.086;2023-05-07T15:44:32;5.55;;;2.75;;
37943;SDS011;23767;42.024;23.086;2023-05-07T15:46:59;4.68;;;2.70;;
37943;SDS011;23767;42.024;23.086;2023-05-07T15:49:25;5.20;;;2.80;;
37943;SDS011;23767;42.024;23.086;2023-05-07T15:51:51;5.47;;;2.83;;
37943;SDS011;23767;42.024;23.086;2023-05-07T15:54:19;4.38;;;2.53;;
37943;SDS011;23767;42.024;23.086;2023-05-07T15:56:46;4.75;;;2.85;;